Observation data for Turkey on 10/13/2019      Previous  Date       Current Mesonet Observations  Soil Data  Daily Summary Page  Observations in Plain Language
KTUR 130500Z 10005KT 09/M02 A2996 RMK A01 T00911020  RH  046%=      5-min Rain = 0
KTUR 130505Z 08004KT 09/M02 A2996 RMK A01 T00881016  RH  049%=      5-min Rain = 0
KTUR 130510Z 09004KT 09/M02 A2996 RMK A01 T00871017  RH  048%=      5-min Rain = 0
KTUR 130515Z 10004KT 09/M02 A2996 RMK A01 T00901021  RH  046%=      5-min Rain = 0
KTUR 130520Z 09003KT 09/M02 A2996 RMK A01 T00931023  RH  045%=      5-min Rain = 0
KTUR 130525Z 06002KT 09/M02 A2996 RMK A01 T00931020  RH  046%=      5-min Rain = 0
KTUR 130530Z 04002KT 09/M02 A2996 RMK A01 T00851015  RH  050%=      5-min Rain = 0
KTUR 130535Z 09003KT 09/M02 A2996 RMK A01 T00851021  RH  048%=      5-min Rain = 0
KTUR 130540Z 11003KT 09/M03 A2996 RMK A01 T00911025  RH  045%=      5-min Rain = 0
KTUR 130545Z 11004KT 09/M02 A2996 RMK A01 T00941024  RH  044%=      5-min Rain = 0
KTUR 130550Z 12005KT 09/M02 A2995 RMK A01 T00931023  RH  045%=      5-min Rain = 0
KTUR 130555Z 12005KT 09/M02 A2995 RMK A01 T00921022  RH  045%=      5-min Rain = 0
KTUR 130600Z 12005KT 09/M02 A2995 RMK A01 T00911024  RH  045%=      5-min Rain = 0
KTUR 130605Z 11005KT 09/M03 A2995 RMK A01 T00921025  RH  044%=      5-min Rain = 0
KTUR 130610Z 09004KT 09/M03 A2995 RMK A01 T00911025  RH  045%=      5-min Rain = 0
KTUR 130615Z 06003KT 09/M02 A2996 RMK A01 T00871018  RH  048%=      5-min Rain = 0
KTUR 130620Z 07004KT 08/M02 A2996 RMK A01 T00831018  RH  050%=      5-min Rain = 0
KTUR 130625Z 06004KT 09/M02 A2996 RMK A01 T00861020  RH  048%=      5-min Rain = 0
KTUR 130630Z 06004KT 09/M02 A2995 RMK A01 T00861019  RH  048%=      5-min Rain = 0
KTUR 130635Z 05003KT 08/M02 A2995 RMK A01 T00841018  RH  049%=      5-min Rain = 0
KTUR 130640Z 06003KT 09/M02 A2995 RMK A01 T00851022  RH  047%=      5-min Rain = 0
KTUR 130645Z 07003KT 09/M03 A2996 RMK A01 T00891026  RH  045%=      5-min Rain = 0
KTUR 130650Z 06003KT 09/M03 A2996 RMK A01 T00921029  RH  043%=      5-min Rain = 0
KTUR 130655Z 04004KT 09/M02 A2996 RMK A01 T00901024  RH  045%=      5-min Rain = 0
KTUR 130700Z 04002KT 09/M02 A2996 RMK A01 T00851023  RH  047%=      5-min Rain = 0
KTUR 130705Z 06003KT 09/M03 A2996 RMK A01 T00881028  RH  045%=      5-min Rain = 0
KTUR 130710Z 06003KT 09/M03 A2996 RMK A01 T00911027  RH  044%=      5-min Rain = 0
KTUR 130715Z 04004KT 09/M02 A2996 RMK A01 T00871024  RH  046%=      5-min Rain = 0
KTUR 130720Z 03003KT 09/M03 A2996 RMK A01 T00851025  RH  046%=      5-min Rain = 0
KTUR 130725Z 04004KT 09/M03 A2996 RMK A01 T00861025  RH  046%=      5-min Rain = 0
KTUR 130730Z 35002KT 08/M02 A2996 RMK A01 T00831023  RH  048%=      5-min Rain = 0
KTUR 130735Z 05002KT 08/M02 A2996 RMK A01 T00811024  RH  048%=      5-min Rain = 0
KTUR 130740Z 08001KT 08/M02 A2996 RMK A01 T00811023  RH  048%=      5-min Rain = 0
KTUR 130745Z 07001KT 08/M03 A2996 RMK A01 T00811027  RH  047%=      5-min Rain = 0
KTUR 130750Z 34002KT 08/M03 A2996 RMK A01 T00821025  RH  048%=      5-min Rain = 0
KTUR 130755Z 03001KT 08/M02 A2996 RMK A01 T00771024  RH  049%=      5-min Rain = 0
KTUR 130800Z 07001KT 08/M03 A2996 RMK A01 T00791027  RH  048%=      5-min Rain = 0
KTUR 130805Z 07001KT 08/M03 A2995 RMK A01 T00821028  RH  046%=      5-min Rain = 0
KTUR 130810Z 08003KT 09/M03 A2995 RMK A01 T00861030  RH  045%=      5-min Rain = 0
KTUR 130815Z 09003KT 09/M03 A2995 RMK A01 T00881029  RH  044%=      5-min Rain = 0
KTUR 130820Z 11004KT 09/M02 A2995 RMK A01 T00871022  RH  047%=      5-min Rain = 0
KTUR 130825Z 12004KT 08/M01 A2995 RMK A01 T00801014  RH  052%=      5-min Rain = 0
KTUR 130830Z 12003KT 08/M02 A2995 RMK A01 T00811021  RH  049%=      5-min Rain = 0
KTUR 130835Z 11003KT 08/M02 A2995 RMK A01 T00811021  RH  049%=      5-min Rain = 0
KTUR 130840Z 06003KT 08/M01 A2995 RMK A01 T00771012  RH  054%=      5-min Rain = 0
KTUR 130845Z 08004KT 08/M02 A2995 RMK A01 T00771022  RH  050%=      5-min Rain = 0
KTUR 130850Z 10005KT 08/M03 A2995 RMK A01 T00821025  RH  047%=      5-min Rain = 0
KTUR 130855Z 11005KT 08/M02 A2994 RMK A01 T00801020  RH  050%=      5-min Rain = 0
KTUR 130900Z 10005KT 08/M02 A2994 RMK A01 T00771021  RH  051%=      5-min Rain = 0
KTUR 130905Z 10006KT 08/M02 A2994 RMK A01 T00761021  RH  051%=      5-min Rain = 0
KTUR 130910Z 12006KT 08/M02 A2994 RMK A01 T00751021  RH  051%=      5-min Rain = 0
KTUR 130915Z 12005KT 07/M02 A2994 RMK A01 T00731018  RH  053%=      5-min Rain = 0
KTUR 130920Z 13005KT 07/M02 A2994 RMK A01 T00731019  RH  052%=      5-min Rain = 0
KTUR 130925Z 11004KT 07/M02 A2994 RMK A01 T00741020  RH  052%=      5-min Rain = 0
KTUR 130930Z 10003KT 08/M02 A2994 RMK A01 T00751023  RH  050%=      5-min Rain = 0
KTUR 130935Z 10004KT 08/M02 A2994 RMK A01 T00761023  RH  050%=      5-min Rain = 0
KTUR 130940Z 11005KT 08/M02 A2993 RMK A01 T00761022  RH  050%=      5-min Rain = 0
KTUR 130945Z 12005KT 08/M02 A2993 RMK A01 T00751021  RH  051%=      5-min Rain = 0
KTUR 130950Z 08003KT 07/M02 A2993 RMK A01 T00731016  RH  054%=      5-min Rain = 0
KTUR 130955Z 12003KT 07/M02 A2993 RMK A01 T00691015  RH  056%=      5-min Rain = 0
KTUR 131000Z 12004KT 08/M02 A2993 RMK A01 T00751022  RH  051%=      5-min Rain = 0
KTUR 131005Z 11004KT 08/M02 A2993 RMK A01 T00761018  RH  052%=      5-min Rain = 0
KTUR 131010Z 11004KT 07/M02 A2993 RMK A01 T00731020  RH  052%=      5-min Rain = 0
KTUR 131015Z 12004KT 08/M02 A2993 RMK A01 T00771022  RH  050%=      5-min Rain = 0
KTUR 131020Z 13005KT 08/M02 A2993 RMK A01 T00801024  RH  048%=      5-min Rain = 0
KTUR 131025Z 13005KT 08/M02 A2993 RMK A01 T00811023  RH  048%=      5-min Rain = 0
KTUR 131030Z 13005KT 08/M02 A2993 RMK A01 T00811022  RH  049%=      5-min Rain = 0
KTUR 131035Z 13006KT 08/M02 A2993 RMK A01 T00781018  RH  051%=      5-min Rain = 0
KTUR 131040Z 13005KT 08/M02 A2993 RMK A01 T00761018  RH  052%=      5-min Rain = 0
KTUR 131045Z 14005KT 08/M02 A2993 RMK A01 T00771020  RH  051%=      5-min Rain = 0
KTUR 131050Z 13005KT 08/M02 A2993 RMK A01 T00781020  RH  051%=      5-min Rain = 0
KTUR 131055Z 13005KT 08/M02 A2993 RMK A01 T00811019  RH  050%=      5-min Rain = 0
KTUR 131100Z 13004KT 08/M02 A2993 RMK A01 T00801018  RH  051%=      5-min Rain = 0
KTUR 131105Z 13003KT 08/M01 A2993 RMK A01 T00761009  RH  055%=      5-min Rain = 0
KTUR 131110Z 13002KT 07/M01 A2992 RMK A01 T00731009  RH  057%=      5-min Rain = 0
KTUR 131115Z 13003KT 08/M01 A2992 RMK A01 T00751012  RH  055%=      5-min Rain = 0
KTUR 131120Z 13004KT 08/M01 A2992 RMK A01 T00801013  RH  052%=      5-min Rain = 0
KTUR 131125Z 14004KT 08/M01 A2992 RMK A01 T00811012  RH  052%=      5-min Rain = 0
KTUR 131130Z 14004KT 08/M01 A2992 RMK A01 T00841012  RH  051%=      5-min Rain = 0
KTUR 131135Z 14004KT 09/M01 A2993 RMK A01 T00851012  RH  051%=      5-min Rain = 0
KTUR 131140Z 13004KT 08/M01 A2992 RMK A01 T00811008  RH  054%=      5-min Rain = 0
KTUR 131145Z 14004KT 08/M01 A2993 RMK A01 T00781010  RH  054%=      5-min Rain = 0
KTUR 131150Z 14005KT 08/M01 A2993 RMK A01 T00791012  RH  053%=      5-min Rain = 0
KTUR 131155Z 14007KT 08/M01 A2992 RMK A01 T00781008  RH  055%=      5-min Rain = 0
KTUR 131200Z 13006KT 08/M01 A2992 RMK A01 T00751008  RH  056%=      5-min Rain = 0
KTUR 131205Z 13005KT 08/M01 A2992 RMK A01 T00761009  RH  056%=      5-min Rain = 0
KTUR 131210Z 14005KT 08/M01 A2992 RMK A01 T00791010  RH  054%=      5-min Rain = 0
KTUR 131215Z 14005KT 08/M01 A2992 RMK A01 T00811009  RH  054%=      5-min Rain = 0
KTUR 131220Z 15005KT 08/M01 A2992 RMK A01 T00761006  RH  057%=      5-min Rain = 0
KTUR 131225Z 15006KT 08/M01 A2992 RMK A01 T00751005  RH  057%=      5-min Rain = 0
KTUR 131230Z 15006KT 07/M00 A2993 RMK A01 T00731002  RH  060%=      5-min Rain = 0
KTUR 131235Z 15006KT 07/00 A2993 RMK A01 T00700001  RH  062%=      5-min Rain = 0
KTUR 131240Z 16006KT 07/00 A2993 RMK A01 T00700001  RH  062%=      5-min Rain = 0
KTUR 131245Z 16006KT 07/00 A2993 RMK A01 T00710002  RH  062%=      5-min Rain = 0
KTUR 131250Z 16006KT 07/00 A2993 RMK A01 T00720002  RH  061%=      5-min Rain = 0
KTUR 131255Z 17006KT 07/00 A2993 RMK A01 T00730003  RH  061%=      5-min Rain = 0
KTUR 131300Z 17007KT 07/01 A2993 RMK A01 T00730006  RH  063%=      5-min Rain = 0
KTUR 131305Z 17007KT 08/01 A2993 RMK A01 T00750007  RH  063%=      5-min Rain = 0
KTUR 131310Z 17007KT 08/01 A2993 RMK A01 T00760007  RH  062%=      5-min Rain = 0
KTUR 131315Z 17008KT 08/01 A2993 RMK A01 T00790009  RH  062%=      5-min Rain = 0
KTUR 131320Z 17007KT 09/01 A2993 RMK A01 T00850011  RH  061%=      5-min Rain = 0
KTUR 131325Z 16007KT 09/01 A2993 RMK A01 T00900012  RH  059%=      5-min Rain = 0
KTUR 131330Z 16007KT 09/01 A2993 RMK A01 T00940014  RH  058%=      5-min Rain = 0
KTUR 131335Z 16006KT 10/02 A2993 RMK A01 T00980017  RH  058%=      5-min Rain = 0
KTUR 131340Z 15005KT 10/02 A2994 RMK A01 T01030018  RH  056%=      5-min Rain = 0
KTUR 131345Z 15004KT 11/02 A2994 RMK A01 T01060020  RH  056%=      5-min Rain = 0
KTUR 131350Z 12002KT 11/02 A2994 RMK A01 T01070021  RH  056%=      5-min Rain = 0
KTUR 131355Z 08002KT 10/02 A2994 RMK A01 T00980021  RH  060%=      5-min Rain = 0
KTUR 131400Z 15002KT 10/02 A2994 RMK A01 T01000021  RH  058%=      5-min Rain = 0
KTUR 131405Z 15001KT 11/02 A2994 RMK A01 T01080023  RH  056%=      5-min Rain = 0
KTUR 131410Z 15003KT 11/02 A2994 RMK A01 T01120023  RH  055%=      5-min Rain = 0
KTUR 131415Z 14004KT 11/02 A2995 RMK A01 T01140023  RH  054%=      5-min Rain = 0
KTUR 131420Z 15003KT 12/03 A2995 RMK A01 T01200027  RH  053%=      5-min Rain = 0
KTUR 131425Z 14003KT 13/03 A2995 RMK A01 T01250028  RH  052%=      5-min Rain = 0
KTUR 131430Z 15003KT 13/03 A2995 RMK A01 T01290028  RH  051%=      5-min Rain = 0
KTUR 131435Z 15004KT 13/03 A2995 RMK A01 T01340031  RH  050%=      5-min Rain = 0
KTUR 131440Z 14003KT 14/03 A2995 RMK A01 T01400033  RH  049%=      5-min Rain = 0
KTUR 131445Z 12002KT 15/03 A2996 RMK A01 T01460033  RH  047%=      5-min Rain = 0
KTUR 131450Z 12001KT 15/04 A2996 RMK A01 T01510036  RH  047%=      5-min Rain = 0
KTUR 131455Z 15002KT 15/04 A2996 RMK A01 T01530036  RH  046%=      5-min Rain = 0
KTUR 131500Z 13001KT 16/04 A2996 RMK A01 T01570036  RH  045%=      5-min Rain = 0
KTUR 131505Z 17002KT 16/04 A2996 RMK A01 T01590036  RH  045%=      5-min Rain = 0
KTUR 131510Z 19000KT 16/04 A2996 RMK A01 T01610039  RH  045%=      5-min Rain = 0
KTUR 131515Z 01001KT 17/04 A2996 RMK A01 T01690041  RH  043%=      5-min Rain = 0
KTUR 131520Z 00001KT 17/04 A2996 RMK A01 T01690038  RH  042%=      5-min Rain = 0
KTUR 131525Z 06001KT 17/04 A2996 RMK A01 T01730039  RH  042%=      5-min Rain = 0
KTUR 131530Z 03002KT 18/04 A2996 RMK A01 T01770042  RH  041%=      5-min Rain = 0
KTUR 131535Z 07003KT 18/04 A2996 RMK A01 T01760041  RH  041%=      5-min Rain = 0
KTUR 131540Z 11002KT 18/04 A2997 RMK A01 T01750040  RH  041%=      5-min Rain = 0
KTUR 131545Z 11001KT 18/04 A2997 RMK A01 T01780043  RH  041%=      5-min Rain = 0
KTUR 131550Z 03000KT 18/04 A2997 RMK A01 T01830044  RH  040%=      5-min Rain = 0
KTUR 131555Z 10001KT 19/05 A2997 RMK A01 T01860048  RH  041%=      5-min Rain = 0
KTUR 131600Z 15001KT 18/04 A2997 RMK A01 T01840042  RH  040%=      5-min Rain = 0
KTUR 131605Z 14001KT 19/05 A2997 RMK A01 T01850050  RH  041%=      5-min Rain = 0
KTUR 131610Z 09002KT 19/05 A2997 RMK A01 T01900049  RH  040%=      5-min Rain = 0
KTUR 131615Z 30003KT 19/05 A2997 RMK A01 T01930051  RH  040%=      5-min Rain = 0
KTUR 131620Z 32004KT 19/05 A2997 RMK A01 T01940051  RH  040%=      5-min Rain = 0
KTUR 131625Z 31002KT 19/05 A2996 RMK A01 T01940051  RH  040%=      5-min Rain = 0
KTUR 131630Z 25002KT 20/05 A2996 RMK A01 T01960050  RH  039%=      5-min Rain = 0
KTUR 131635Z 36002KT 20/05 A2996 RMK A01 T01990052  RH  039%=      5-min Rain = 0
KTUR 131640Z 35002KT 20/06 A2997 RMK A01 T02030056  RH  039%=      5-min Rain = 0
KTUR 131645Z 01002KT 21/06 A2997 RMK A01 T02050055  RH  038%=      5-min Rain = 0
KTUR 131650Z 01002KT 21/05 A2996 RMK A01 T02050053  RH  037%=      5-min Rain = 0
KTUR 131655Z 02003KT 21/05 A2996 RMK A01 T02050052  RH  037%=      5-min Rain = 0
KTUR 131700Z 09001KT 21/05 A2996 RMK A01 T02060052  RH  037%=      5-min Rain = 0
KTUR 131705Z 09001KT 21/05 A2996 RMK A01 T02100053  RH  036%=      5-min Rain = 0
KTUR 131710Z 09001KT 22/06 A2996 RMK A01 T02150060  RH  037%=      5-min Rain = 0
KTUR 131715Z 12002KT 22/05 A2996 RMK A01 T02170054  RH  035%=      5-min Rain = 0
KTUR 131720Z 10002KT 22/06 A2996 RMK A01 T02190060  RH  036%=      5-min Rain = 0
KTUR 131725Z 10003KT 22/06 A2996 RMK A01 T02180055  RH  035%=      5-min Rain = 0
KTUR 131730Z 10003KT 22/06 A2996 RMK A01 T02180057  RH  035%=      5-min Rain = 0
KTUR 131735Z 12003KT 22/06 A2996 RMK A01 T02210056  RH  035%=      5-min Rain = 0
KTUR 131740Z 12002KT 22/05 A2996 RMK A01 T02200052  RH  034%=      5-min Rain = 0
KTUR 131745Z 14003KT 22/05 A2996 RMK A01 T02220054  RH  034%=      5-min Rain = 0
KTUR 131750Z 16003KT 22/05 A2996 RMK A01 T02230054  RH  034%=      5-min Rain = 0
KTUR 131755Z 03002KT 23/06 A2996 RMK A01 T02280056  RH  033%=      5-min Rain = 0
KTUR 131800Z 00002KT 23/05 A2995 RMK A01 T02290052  RH  032%=      5-min Rain = 0
KTUR 131805Z 07001KT 23/05 A2995 RMK A01 T02310048  RH  031%=      5-min Rain = 0
KTUR 131810Z 12003KT 24/05 A2995 RMK A01 T02360052  RH  031%=      5-min Rain = 0
KTUR 131815Z 17002KT 24/05 A2995 RMK A01 T02360051  RH  031%=      5-min Rain = 0
KTUR 131820Z 10002KT 24/06 A2995 RMK A01 T02370056  RH  031%=      5-min Rain = 0
KTUR 131825Z 12002KT 24/05 A2994 RMK A01 T02370054  RH  031%=      5-min Rain = 0
KTUR 131830Z 14001KT 24/05 A2994 RMK A01 T02360052  RH  031%=      5-min Rain = 0
KTUR 131835Z 34001KT 24/05 A2994 RMK A01 T02390054  RH  031%=      5-min Rain = 0
KTUR 131840Z 06001KT 24/05 A2994 RMK A01 T02420054  RH  030%=      5-min Rain = 0
KTUR 131845Z 13004KT 25/06 A2994 RMK A01 T02460059  RH  031%=      5-min Rain = 0
KTUR 131850Z 09001KT 25/06 A2993 RMK A01 T02490063  RH  031%=      5-min Rain = 0
KTUR 131855Z 14003KT 25/06 A2993 RMK A01 T02500057  RH  029%=      5-min Rain = 0
KTUR 131900Z 19001KT 25/05 A2993 RMK A01 T02480050  RH  028%=      5-min Rain = 0
KTUR 131905Z 13003KT 25/05 A2993 RMK A01 T02500052  RH  028%=      5-min Rain = 0
KTUR 131910Z 11004KT 25/06 A2992 RMK A01 T02520055  RH  028%=      5-min Rain = 0
KTUR 131915Z 11005KT 25/05 A2992 RMK A01 T02520052  RH  028%=      5-min Rain = 0
KTUR 131920Z 13003KT 26/05 A2992 RMK A01 T02550048  RH  027%=      5-min Rain = 0
KTUR 131925Z 09005KT 26/05 A2992 RMK A01 T02570053  RH  027%=      5-min Rain = 0
KTUR 131930Z 13004KT 26/05 A2991 RMK A01 T02600052  RH  027%=      5-min Rain = 0
KTUR 131935Z 11004KT 26/05 A2991 RMK A01 T02600049  RH  026%=      5-min Rain = 0
KTUR 131940Z 15004KT 26/05 A2991 RMK A01 T02610052  RH  026%=      5-min Rain = 0
KTUR 131945Z 14003KT 26/05 A2991 RMK A01 T02620049  RH  026%=      5-min Rain = 0
KTUR 131950Z 08004G9KT 26/05 A299 RMK A01 T02630049  RH  026%=      5-min Rain = 0
KTUR 131955Z 10006KT 26/05 A299 RMK A01 T02630048  RH  025%=      5-min Rain = 0
KTUR 132000Z 07005KT 27/05 A299 RMK A01 T02650053  RH  026%=      5-min Rain = 0
KTUR 132005Z 07006KT 27/05 A299 RMK A01 T02670049  RH  025%=      5-min Rain = 0
KTUR 132010Z 07006KT 27/05 A299 RMK A01 T02690050  RH  025%=      5-min Rain = 0
KTUR 132015Z 08005KT 27/05 A299 RMK A01 T02690048  RH  025%=      5-min Rain = 0
KTUR 132020Z 05005KT 27/05 A2989 RMK A01 T02680045  RH  024%=      5-min Rain = 0
KTUR 132025Z 08004KT 27/05 A2989 RMK A01 T02710050  RH  025%=      5-min Rain = 0
KTUR 132030Z 08004KT 27/05 A2989 RMK A01 T02720050  RH  024%=      5-min Rain = 0
KTUR 132035Z 08006KT 28/05 A2989 RMK A01 T02750053  RH  025%=      5-min Rain = 0
KTUR 132040Z 07004KT 27/05 A2989 RMK A01 T02730049  RH  024%=      5-min Rain = 0
KTUR 132045Z 07005G10KT 27/05 A2989 RMK A01 T02740053  RH  025%=      5-min Rain = 0
KTUR 132050Z 07006KT 27/05 A2989 RMK A01 T02730049  RH  024%=      5-min Rain = 0
KTUR 132055Z 07005KT 28/05 A2989 RMK A01 T02750051  RH  024%=      5-min Rain = 0
KTUR 132100Z 06007KT 27/05 A2989 RMK A01 T02730050  RH  024%=      5-min Rain = 0
KTUR 132105Z 08007KT 27/05 A2989 RMK A01 T02740049  RH  024%=      5-min Rain = 0
KTUR 132110Z 06007KT 27/05 A2989 RMK A01 T02740051  RH  024%=      5-min Rain = 0
KTUR 132115Z 06007KT 27/05 A2988 RMK A01 T02730050  RH  024%=      5-min Rain = 0
KTUR 132120Z 05006KT 28/05 A2989 RMK A01 T02750053  RH  025%=      5-min Rain = 0
KTUR 132125Z 10006KT 28/05 A2989 RMK A01 T02750053  RH  025%=      5-min Rain = 0
KTUR 132130Z 07007KT 28/06 A2989 RMK A01 T02760055  RH  025%=      5-min Rain = 0
KTUR 132135Z 10005KT 28/06 A2989 RMK A01 T02770056  RH  025%=      5-min Rain = 0
KTUR 132140Z 09007KT 28/05 A2989 RMK A01 T02770054  RH  025%=      5-min Rain = 0
KTUR 132145Z 08006KT 28/05 A2989 RMK A01 T02770054  RH  024%=      5-min Rain = 0
KTUR 132150Z 07006KT 28/06 A2988 RMK A01 T02780056  RH  025%=      5-min Rain = 0
KTUR 132155Z 09005KT 28/06 A2989 RMK A01 T02800056  RH  024%=      5-min Rain = 0
KTUR 132200Z 11007KT 28/05 A2988 RMK A01 T02790053  RH  024%=      5-min Rain = 0
KTUR 132205Z 10007KT 28/06 A2988 RMK A01 T02810057  RH  024%=      5-min Rain = 0
KTUR 132210Z 10004KT 28/05 A2988 RMK A01 T02800051  RH  024%=      5-min Rain = 0
KTUR 132215Z 09007KT 28/06 A2988 RMK A01 T02790056  RH  024%=      5-min Rain = 0
KTUR 132220Z 10007KT 28/05 A2988 RMK A01 T02780054  RH  024%=      5-min Rain = 0
KTUR 132225Z 10007KT 28/06 A2988 RMK A01 T02780056  RH  025%=      5-min Rain = 0
KTUR 132230Z 10007KT 28/06 A2988 RMK A01 T02780058  RH  025%=      5-min Rain = 0
KTUR 132235Z 09007KT 28/06 A2988 RMK A01 T02780060  RH  025%=      5-min Rain = 0
KTUR 132240Z 09007KT 28/06 A2988 RMK A01 T02780061  RH  026%=      5-min Rain = 0
KTUR 132245Z 09008KT 28/06 A2988 RMK A01 T02760059  RH  026%=      5-min Rain = 0
KTUR 132250Z 09008KT 28/06 A2988 RMK A01 T02750061  RH  026%=      5-min Rain = 0
KTUR 132255Z 10008KT 27/06 A2988 RMK A01 T02740063  RH  026%=      5-min Rain = 0
KTUR 132300Z 10007KT 27/06 A2988 RMK A01 T02740063  RH  026%=      5-min Rain = 0
KTUR 132305Z 10008KT 27/06 A2988 RMK A01 T02730061  RH  026%=      5-min Rain = 0
KTUR 132310Z 09007KT 27/06 A2989 RMK A01 T02710062  RH  027%=      5-min Rain = 0
KTUR 132315Z 08006KT 27/06 A2989 RMK A01 T02700064  RH  027%=      5-min Rain = 0
KTUR 132320Z 07004KT 27/07 A2989 RMK A01 T02680067  RH  028%=      5-min Rain = 0
KTUR 132325Z 07005KT 27/07 A2989 RMK A01 T02650069  RH  029%=      5-min Rain = 0
KTUR 132330Z 06005KT 26/07 A2989 RMK A01 T02610072  RH  030%=      5-min Rain = 0
KTUR 132335Z 05005KT 26/08 A2989 RMK A01 T02570076  RH  032%=      5-min Rain = 0
KTUR 132340Z 06006KT 25/08 A2989 RMK A01 T02520075  RH  033%=      5-min Rain = 0
KTUR 132345Z 05006KT 25/08 A2989 RMK A01 T02470075  RH  034%=      5-min Rain = 0
KTUR 132350Z 06006KT 24/07 A2989 RMK A01 T02440071  RH  034%=      5-min Rain = 0
KTUR 132355Z 07007KT 24/07 A2989 RMK A01 T02420070  RH  034%=      5-min Rain = 0
KTUR 140000Z 07007KT 24/07 A2989 RMK A01 T02390067  RH  034%=      5-min Rain = 0
KTUR 140005Z 07006KT 24/07 A2989 RMK A01 T02360065  RH  034%=      5-min Rain = 0
KTUR 140010Z 06007KT 23/07 A2989 RMK A01 T02320065  RH  035%=      5-min Rain = 0
KTUR 140015Z 06006KT 23/07 A299 RMK A01 T02260066  RH  036%=      5-min Rain = 0
KTUR 140020Z 06007KT 22/07 A299 RMK A01 T02210066  RH  037%=      5-min Rain = 0
KTUR 140025Z 06007KT 22/06 A299 RMK A01 T02210064  RH  037%=      5-min Rain = 0
KTUR 140030Z 06007KT 22/06 A299 RMK A01 T02220063  RH  036%=      5-min Rain = 0
KTUR 140035Z 06007KT 22/06 A299 RMK A01 T02210063  RH  036%=      5-min Rain = 0
KTUR 140040Z 05007KT 22/06 A299 RMK A01 T02180064  RH  037%=      5-min Rain = 0
KTUR 140045Z 04005KT 21/07 A299 RMK A01 T02110066  RH  039%=      5-min Rain = 0
KTUR 140050Z 03004KT 21/07 A299 RMK A01 T02080065  RH  040%=      5-min Rain = 0
KTUR 140055Z 03005KT 21/06 A2991 RMK A01 T02100064  RH  039%=      5-min Rain = 0
KTUR 140100Z 03005KT 21/06 A2991 RMK A01 T02090064  RH  039%=      5-min Rain = 0
KTUR 140105Z 04006KT 21/06 A2991 RMK A01 T02070063  RH  040%=      5-min Rain = 0
KTUR 140110Z 04006KT 21/06 A2991 RMK A01 T02080061  RH  039%=      5-min Rain = 0
KTUR 140115Z 05007KT 21/06 A2991 RMK A01 T02060061  RH  039%=      5-min Rain = 0
KTUR 140120Z 04008KT 20/06 A2991 RMK A01 T02020061  RH  040%=      5-min Rain = 0
KTUR 140125Z 04007KT 20/06 A2991 RMK A01 T02000061  RH  041%=      5-min Rain = 0
KTUR 140130Z 03006KT 20/06 A2991 RMK A01 T01990060  RH  041%=      5-min Rain = 0
KTUR 140135Z 02005KT 20/06 A2991 RMK A01 T01960060  RH  042%=      5-min Rain = 0
KTUR 140140Z 03005KT 20/06 A2992 RMK A01 T01970058  RH  041%=      5-min Rain = 0
KTUR 140145Z 03005KT 20/06 A2992 RMK A01 T02000057  RH  040%=      5-min Rain = 0
KTUR 140150Z 03005KT 20/06 A2992 RMK A01 T02010056  RH  039%=      5-min Rain = 0
KTUR 140155Z 03005KT 20/06 A2992 RMK A01 T01990057  RH  040%=      5-min Rain = 0
KTUR 140200Z 03005KT 20/06 A2992 RMK A01 T01950057  RH  041%=      5-min Rain = 0
KTUR 140205Z 03005KT 19/06 A2992 RMK A01 T01910058  RH  042%=      5-min Rain = 0
KTUR 140210Z 03006KT 19/06 A2992 RMK A01 T01890057  RH  042%=      5-min Rain = 0
KTUR 140215Z 03005KT 19/06 A2992 RMK A01 T01890057  RH  042%=      5-min Rain = 0
KTUR 140220Z 03005KT 19/06 A2992 RMK A01 T01850057  RH  044%=      5-min Rain = 0
KTUR 140225Z 03005KT 18/06 A2992 RMK A01 T01840055  RH  043%=      5-min Rain = 0
KTUR 140230Z 03006KT 19/05 A2992 RMK A01 T01870054  RH  042%=      5-min Rain = 0
KTUR 140235Z 04006KT 19/05 A2992 RMK A01 T01880054  RH  042%=      5-min Rain = 0
KTUR 140240Z 03005KT 19/05 A2992 RMK A01 T01880054  RH  042%=      5-min Rain = 0
KTUR 140245Z 03006KT 18/05 A2992 RMK A01 T01840054  RH  043%=      5-min Rain = 0
KTUR 140250Z 03004KT 18/05 A2992 RMK A01 T01830054  RH  043%=      5-min Rain = 0
KTUR 140255Z 02004KT 18/05 A2992 RMK A01 T01820053  RH  043%=      5-min Rain = 0
KTUR 140300Z 04005KT 18/05 A2992 RMK A01 T01830052  RH  043%=      5-min Rain = 0
KTUR 140305Z 05007KT 19/05 A2992 RMK A01 T01880052  RH  041%=      5-min Rain = 0
KTUR 140310Z 06007KT 19/05 A2992 RMK A01 T01870054  RH  042%=      5-min Rain = 0
KTUR 140315Z 06006KT 19/05 A2992 RMK A01 T01860053  RH  042%=      5-min Rain = 0
KTUR 140320Z 05006KT 19/05 A2992 RMK A01 T01850053  RH  042%=      5-min Rain = 0
KTUR 140325Z 05006KT 18/05 A2992 RMK A01 T01820053  RH  043%=      5-min Rain = 0
KTUR 140330Z 05004KT 18/05 A2992 RMK A01 T01820052  RH  043%=      5-min Rain = 0
KTUR 140335Z 04003KT 18/05 A2992 RMK A01 T01810052  RH  043%=      5-min Rain = 0
KTUR 140340Z 05002KT 18/05 A2992 RMK A01 T01790054  RH  044%=      5-min Rain = 0
KTUR 140345Z 05002KT 17/05 A2992 RMK A01 T01650054  RH  049%=      5-min Rain = 0
KTUR 140350Z 06001KT 16/06 A2992 RMK A01 T01640055  RH  049%=      5-min Rain = 0
KTUR 140355Z 06001KT 17/05 A2992 RMK A01 T01690052  RH  047%=      5-min Rain = 0
KTUR 140400Z 05000KT 17/06 A2992 RMK A01 T01660055  RH  048%=      5-min Rain = 0
KTUR 140405Z 31001KT 17/05 A2992 RMK A01 T01690052  RH  047%=      5-min Rain = 0
KTUR 140410Z 32001KT 17/05 A2992 RMK A01 T01700050  RH  046%=      5-min Rain = 0
KTUR 140415Z 30002KT 17/05 A2992 RMK A01 T01690052  RH  046%=      5-min Rain = 0
KTUR 140420Z 27002KT 17/05 A2992 RMK A01 T01700051  RH  046%=      5-min Rain = 0
KTUR 140425Z 32001KT 17/05 A2992 RMK A01 T01690052  RH  047%=      5-min Rain = 0
KTUR 140430Z 32002KT 17/05 A2992 RMK A01 T01710051  RH  046%=      5-min Rain = 0
KTUR 140435Z 28001KT 17/05 A2992 RMK A01 T01690052  RH  047%=      5-min Rain = 0
KTUR 140440Z 27002KT 17/05 A2992 RMK A01 T01710052  RH  046%=      5-min Rain = 0
KTUR 140445Z 26003KT 16/05 A2992 RMK A01 T01620054  RH  049%=      5-min Rain = 0
KTUR 140450Z 23003KT 17/05 A2992 RMK A01 T01650053  RH  048%=      5-min Rain = 0
KTUR 140455Z 25002KT 17/05 A2992 RMK A01 T01700052  RH  046%=      5-min Rain = 0

Page generated in 0.0257 seconds.